Have a Safe July 4th! 

Flight Track Log - Related Links

Times and Time Zones

All times are in EDT time to prevent confusion due to time zone crossing. See the CTL18 flight status page for this flight to view local times or setup timezone preferences in your user account.

Time Position Orientation Groundspeed Altitude Reporting Facility
EDT Latitude Longitude Course Direction KTS MPH feet Rate Location/Type
Thu 07:01:49 PM 42.6622 -83.4464 291° West 116 133 1,500  Level Cleveland Center
Thu 07:02:38 PM 42.6717 -83.4806 291° West 120 138 2,300 980 Climbing Cleveland Center
Thu 07:04:00 PM 42.7064 -83.4353 44° Northeast  Level FlightAware Approximate
Thu 07:11:00 PM 42.9440 -83.4150 321° Northwest  Level FlightAware Approximate
Thu 07:12:00 PM 42.9714 -83.4452 321° Northwest  Level FlightAware Approximate
Thu 07:13:00 PM 42.9988 -83.4753 321° Northwest  Level FlightAware Approximate
Thu 07:14:00 PM 43.0262 -83.5055 321° Northwest  Level FlightAware Approximate
Thu 07:15:00 PM 43.0535 -83.5358 321° Northwest  Level FlightAware Approximate
Thu 07:16:00 PM 43.0809 -83.5660 321° Northwest  Level FlightAware Approximate
Thu 07:17:00 PM 43.1083 -83.5963 321° Northwest  Level FlightAware Approximate
Thu 07:18:00 PM 43.1356 -83.6266 321° Northwest  Level FlightAware Approximate
Thu 07:19:00 PM 43.1630 -83.6570 321° Northwest  Level FlightAware Approximate
Thu 07:20:00 PM 43.1903 -83.6873 321° Northwest  Level FlightAware Approximate
Thu 07:21:00 PM 43.2176 -83.7178 318° Northwest  Level FlightAware Approximate
Thu 07:22:00 PM 43.2439 -83.7498 318° Northwest  Level FlightAware Approximate
Thu 07:23:00 PM 43.2702 -83.7819 318° Northwest  Level FlightAware Approximate
Thu 07:24:00 PM 43.2965 -83.8141 318° Northwest  Level FlightAware Approximate
Thu 07:25:00 PM 43.3228 -83.8462 318° Northwest  Level FlightAware Approximate
Thu 07:26:00 PM 43.3490 -83.8784 318° Northwest  Level FlightAware Approximate
Thu 07:27:00 PM 43.3760 -83.9093 324° Northwest  Level FlightAware Approximate
Thu 07:28:00 PM 43.4045 -83.9378 324° Northwest  Level FlightAware Approximate
Thu 07:29:00 PM 43.4330 -83.9662 324° Northwest  Level FlightAware Approximate
Thu 07:30:00 PM 43.4614 -83.9947 324° Northwest  Level FlightAware Approximate
Thu 07:31:00 PM 43.4899 -84.0232 324° Northwest  Level FlightAware Approximate
Thu 07:32:00 PM 43.5129 -84.0591 305° West  Level FlightAware Approximate
Thu 07:33:00 PM 43.5167 -84.0667 305° West  Level FlightAware Approximate
Thu 07:34:00 PM 43.5329 -84.0796 305° West  Level Estimated

Login

Don't have an account? Register now (free) for customized features, flight alerts, and more!